Página principal
METAR-TAF:

METAR-TAF

Aeroportos :

Fort Hood / Killeen, Texas, Estados Unidos

latitude: 31-06N, longitude: 097-20W, altura: 283 m

Observação actual do tempo

O boletim foi feito há 57 minutos, às 16:58 UTC
Vento 5 kt de oes-sudoeste
Temperatura 20°C
Humidade 56%
Pressão 1024 hPa
Visibilidade: 16.1 km
Nuvens dispersasa uma altura de 3400 ft

METAR: KHLR 201658Z AUTO 25005KT 10SM SCT034 20/11 A3023 RMK AO2 SLP232 T02030105

Hora: 11:55 (17:55 UTC)


TAF: em falta

Observações e previsões do tempo de mais de 4000 aeroportos (mensagens METAR e TAF).

As estações disponíveis são os pontos amarelos e vermelhos sobre o mapa.

Mova o rato sobre o mapa para ver o nome da estação.

Depois clique no ponto para visualizar as observações e previsões meteorológicas.

Para alterar o mapa : clique nos botões verdes com uma cruz preta para aumentar o zoom; no botão verde com uma pitada de zoom; ou nas setas verdes para mapas adjacentes.


METAR-TAF: